航空気象通報

ウインドサーファーのための航空気象通報による風予報です。

4/4-5の航空気象通報(国内、海外)

2008年04月04日 23時32分39秒 | TAF
羽田空港
TAF RJTT 040842Z 041812 35010KT 9999 FEW030
BECMG 0003 12006KT
BECMG 0306 18012KT
日本時間5日03-09時:350度から10ノットの風
09-12時:風が変化
12時:120度から6ノットの風
12-15時:風が変化
15-21時:180度から12ノットの風


那覇空港
TAF ROAH 040841Z 041812 13008KT 9999 FEW015 BKN030
TEMPO 1821 4000 SHRA
TEMPO 0309 3000 SHRA FEW008 BKN015 SCT020CB
BECMG 0609 19012KT
日本時間5日03-15時:130度から8ノットの風
15-18時:風が変化
18-21時:190度から12ノットの風
、但し、03-18時:一時、

マウイのカフルイ空港
PHOG 041120Z 041212 04011KT P6SM FEW035 BKN060
TEMPO 1315 4SM SHRA BKN030 OVC060
FM2000 02015G22KT P6SM FEW035 SCT060
FM0500 04014KT P6SM FEW030 BKN060
ハワイ時間4日02-10時:040度から11ノットの風
、但し、03-05時:一時、
10-19時:020度から15ノット、突風22ノット

19時-5日02時:040度から14ノットの風


サイパン空港
PGSN 041120Z 041212 06009G16KT P6SM VCSH FEW020 SCT040
マリアナ時間4日22時-5日22時:060度から9ノット、突風16ノット

コメント